Time;durP1;ratioP1;P1;durP2;ratioP2;P2;SDS_P1;SDS_P2;PMS_P1;PMS_P2;Temp;Humidity;BMP_temperature;BMP_pressure;BME280_temperature;BME280_humidity;BME280_pressure;Samples;Min_cycle;Max_cycle;Signal;HPM_P1;HPM_P2
2022/10/06 00:00:48;;;;;;;0.00;0.00;;;12.40;99.90;;;;;;5030911;28;20228;-62
2022/10/06 00:03:14;;;;;;;0.00;0.00;;;12.40;99.90;;;;;;5030303;28;20635;-62
2022/10/06 00:05:40;;;;;;;0.00;0.00;;;12.30;99.90;;;;;;5031363;28;20222;-63
2022/10/06 00:08:06;;;;;;;0.00;0.00;;;12.30;99.90;;;;;;5039379;28;20201;-63
2022/10/06 00:10:32;;;;;;;0.10;0.10;;;12.30;99.90;;;;;;5030720;28;20189;-62
2022/10/06 00:12:58;;;;;;;0.00;0.00;;;12.30;99.90;;;;;;5030837;28;20631;-63
2022/10/06 00:15:28;;;;;;;0.00;0.00;;;12.30;99.90;;;;;;5030965;28;20182;-62
2022/10/06 00:17:55;;;;;;;0.00;0.00;;;12.40;99.90;;;;;;5030952;28;20190;-63
2022/10/06 00:20:21;;;;;;;0.03;0.03;;;12.40;99.90;;;;;;5031131;28;20202;-63
2022/10/06 00:22:48;;;;;;;0.00;0.00;;;12.40;99.90;;;;;;5030948;28;20170;-63
2022/10/06 00:25:16;;;;;;;0.47;0.28;;;12.30;99.90;;;;;;5030915;28;20224;-62
2022/10/06 00:27:46;;;;;;;0.00;0.00;;;12.40;99.90;;;;;;5030612;28;20205;-63
2022/10/06 00:30:17;;;;;;;0.00;0.00;;;12.40;99.90;;;;;;5028382;28;20221;-62
2022/10/06 00:32:51;;;;;;;0.00;0.00;;;12.40;99.90;;;;;;5031113;28;20538;-62
2022/10/06 00:35:17;;;;;;;0.00;0.00;;;12.40;99.90;;;;;;5029512;28;20234;-62
2022/10/06 00:37:42;;;;;;;0.00;0.00;;;12.40;99.90;;;;;;5031103;28;20182;-63
2022/10/06 00:40:09;;;;;;;0.00;0.00;;;12.40;99.90;;;;;;5030839;28;20193;-62
2022/10/06 00:42:57;;;;;;;0.00;0.00;;;12.40;99.90;;;;;;5030954;28;20175;-63
2022/10/06 00:45:33;;;;;;;0.00;0.00;;;12.40;99.90;;;;;;5026028;28;20321;-63
2022/10/06 00:48:05;;;;;;;0.00;0.00;;;12.40;99.90;;;;;;5030650;28;20170;-63
2022/10/06 00:50:32;;;;;;;1.60;1.25;;;12.40;99.90;;;;;;5031132;28;20182;-63
2022/10/06 00:52:57;;;;;;;0.03;0.03;;;12.50;99.90;;;;;;5034666;28;20220;-63
2022/10/06 00:55:23;;;;;;;0.00;0.00;;;12.50;99.90;;;;;;5034785;28;20210;-63
2022/10/06 00:57:51;;;;;;;0.00;0.00;;;12.50;99.90;;;;;;5034023;28;20178;-63
2022/10/06 01:00:16;;;;;;;0.00;0.00;;;12.40;99.90;;;;;;5034580;28;20208;-63
2022/10/06 01:03:06;;;;;;;0.00;0.00;;;12.40;99.90;;;;;;5034493;28;20597;-63
2022/10/06 01:05:35;;;;;;;0.00;0.00;;;12.40;99.90;;;;;;5033948;28;20222;-63
2022/10/06 01:08:01;;;;;;;0.30;0.13;;;12.40;99.90;;;;;;5034037;28;20260;-63
2022/10/06 01:10:27;;;;;;;0.00;0.00;;;12.40;99.90;;;;;;5034717;28;20182;-63
2022/10/06 01:12:53;;;;;;;0.13;0.13;;;12.50;99.90;;;;;;5034202;28;20205;-63
2022/10/06 01:15:20;;;;;;;0.00;0.00;;;12.50;99.90;;;;;;5033077;28;20182;-63
2022/10/06 01:17:54;;;;;;;0.00;0.00;;;12.50;99.90;;;;;;5032977;28;20688;-63
2022/10/06 01:20:21;;;;;;;0.10;0.10;;;12.60;99.90;;;;;;5034070;28;20646;-63
2022/10/06 01:22:56;;;;;;;0.10;0.10;;;12.70;99.90;;;;;;5034138;28;20186;-63
2022/10/06 01:25:22;;;;;;;0.00;0.00;;;12.70;99.90;;;;;;5033835;28;20221;-63
2022/10/06 01:27:52;;;;;;;0.00;0.00;;;12.80;99.90;;;;;;5034079;28;20175;-63
2022/10/06 01:30:24;;;;;;;0.00;0.00;;;12.90;99.90;;;;;;5032619;28;20209;-63
2022/10/06 01:32:50;;;;;;;0.00;0.00;;;13.00;99.90;;;;;;5020708;28;20194;-63
2022/10/06 01:35:16;;;;;;;0.00;0.00;;;13.10;99.90;;;;;;5034310;28;20186;-63
2022/10/06 01:37:41;;;;;;;0.10;0.10;;;13.30;99.90;;;;;;5033919;28;20248;-63
2022/10/06 01:40:08;;;;;;;0.00;0.00;;;13.40;99.90;;;;;;5032371;28;20208;-63
2022/10/06 01:42:34;;;;;;;0.00;0.00;;;13.60;99.90;;;;;;5033410;28;20186;-63
2022/10/06 01:45:00;;;;;;;0.35;0.00;;;13.70;99.90;;;;;;5032647;28;20218;-63
2022/10/06 01:47:26;;;;;;;0.00;0.00;;;13.80;99.90;;;;;;5033598;28;20209;-63
2022/10/06 01:49:52;;;;;;;0.00;0.00;;;13.90;99.90;;;;;;5032242;28;20213;-63
2022/10/06 01:52:18;;;;;;;0.00;0.00;;;14.00;99.90;;;;;;5033692;28;20626;-63
2022/10/06 01:54:44;;;;;;;0.00;0.00;;;14.00;99.90;;;;;;5033514;28;20178;-63
2022/10/06 01:57:09;;;;;;;0.00;0.00;;;14.00;99.90;;;;;;5033050;28;20189;-63
2022/10/06 01:59:35;;;;;;;0.00;0.00;;;14.10;99.90;;;;;;5033389;28;20746;-63
2022/10/06 02:02:00;;;;;;;0.00;0.00;;;14.20;99.90;;;;;;5033123;28;20182;-63
2022/10/06 02:04:26;;;;;;;0.00;0.00;;;14.20;99.90;;;;;;5032993;28;20229;-63
2022/10/06 02:06:54;;;;;;;0.00;0.00;;;14.30;99.90;;;;;;5039026;28;20192;-63
2022/10/06 02:09:20;;;;;;;0.10;0.10;;;14.30;99.90;;;;;;5033321;28;20170;-63
2022/10/06 02:11:46;;;;;;;0.00;0.00;;;14.30;99.90;;;;;;5033376;28;20201;-63
2022/10/06 02:14:12;;;;;;;0.00;0.00;;;14.30;99.90;;;;;;5032607;28;20178;-63
2022/10/06 02:16:38;;;;;;;0.00;0.00;;;14.30;99.90;;;;;;5032864;28;20181;-63
2022/10/06 02:19:03;;;;;;;0.00;0.00;;;14.30;99.90;;;;;;5033249;28;20197;-63
2022/10/06 02:21:29;;;;;;;0.00;0.00;;;14.30;99.90;;;;;;5032807;28;20170;-63
2022/10/06 02:23:54;;;;;;;0.00;0.00;;;14.30;99.90;;;;;;5033152;28;20186;-63
2022/10/06 02:26:20;;;;;;;0.00;0.00;;;14.30;99.90;;;;;;5032965;28;20221;-63
2022/10/06 02:28:46;;;;;;;0.00;0.00;;;14.40;99.90;;;;;;5033205;28;20209;-63
2022/10/06 02:31:13;;;;;;;0.00;0.00;;;14.40;99.90;;;;;;5032717;28;20182;-63
2022/10/06 02:33:39;;;;;;;0.00;0.00;;;14.40;99.90;;;;;;5032791;28;20221;-63
2022/10/06 02:36:06;;;;;;;0.00;0.00;;;14.40;99.90;;;;;;5033089;28;20190;-62
2022/10/06 02:38:31;;;;;;;0.00;0.00;;;14.40;99.90;;;;;;5032725;28;20182;-63
2022/10/06 02:40:58;;;;;;;0.00;0.00;;;14.40;99.90;;;;;;5032877;28;20186;-63
2022/10/06 02:43:28;;;;;;;0.00;0.00;;;14.50;99.90;;;;;;5032613;28;20210;-63
2022/10/06 02:46:00;;;;;;;0.00;0.00;;;14.60;99.90;;;;;;5032096;28;20261;-63
2022/10/06 02:48:26;;;;;;;0.00;0.00;;;14.70;99.90;;;;;;5032392;28;20281;-63
2022/10/06 02:50:56;;;;;;;0.00;0.00;;;14.70;99.90;;;;;;5032780;28;20213;-64
2022/10/06 02:53:24;;;;;;;0.00;0.00;;;14.80;99.90;;;;;;5032018;28;20182;-63
2022/10/06 02:55:55;;;;;;;0.00;0.00;;;14.90;99.90;;;;;;5031970;28;20545;-63
2022/10/06 02:58:21;;;;;;;0.00;0.00;;;15.00;99.90;;;;;;5020284;28;20182;-63
2022/10/06 03:00:46;;;;;;;0.63;0.13;;;15.00;99.90;;;;;;5032365;28;20186;-63
2022/10/06 03:03:12;;;;;;;0.00;0.00;;;15.10;99.90;;;;;;5032275;28;20269;-63
2022/10/06 03:05:37;;;;;;;0.00;0.00;;;15.10;99.90;;;;;;5030796;28;20688;-63
2022/10/06 03:08:03;;;;;;;0.00;0.00;;;15.20;99.90;;;;;;5037704;28;20189;-63
2022/10/06 03:10:28;;;;;;;0.00;0.00;;;15.30;99.90;;;;;;5031412;28;20660;-63
2022/10/06 03:12:54;;;;;;;0.10;0.10;;;15.30;99.90;;;;;;5032515;28;20182;-63
2022/10/06 03:15:20;;;;;;;0.00;0.00;;;15.40;99.90;;;;;;5031245;28;20177;-63
2022/10/06 03:17:48;;;;;;;0.00;0.00;;;15.40;99.90;;;;;;5032026;28;20177;-64
2022/10/06 03:20:14;;;;;;;0.20;0.20;;;15.50;99.90;;;;;;5031825;28;20190;-63
2022/10/06 03:22:39;;;;;;;0.00;0.00;;;15.50;99.90;;;;;;5032039;28;20173;-63
2022/10/06 03:25:06;;;;;;;0.00;0.00;;;15.50;99.90;;;;;;5031516;28;20221;-63
2022/10/06 03:27:31;;;;;;;0.00;0.00;;;15.60;99.90;;;;;;5031580;28;20656;-63
2022/10/06 03:29:57;;;;;;;0.00;0.00;;;15.60;99.90;;;;;;5031412;28;20194;-63
2022/10/06 03:32:22;;;;;;;0.00;0.00;;;15.70;99.90;;;;;;5031490;28;20206;-63
2022/10/06 03:34:48;;;;;;;0.00;0.00;;;15.70;99.90;;;;;;5031885;28;20213;-63
2022/10/06 03:37:14;;;;;;;0.00;0.00;;;15.70;99.90;;;;;;5031308;28;20277;-63
2022/10/06 03:39:39;;;;;;;0.00;0.00;;;15.70;99.90;;;;;;5031084;28;20205;-63
2022/10/06 03:42:05;;;;;;;0.00;0.00;;;15.70;99.90;;;;;;5031559;28;20190;-63
2022/10/06 03:44:33;;;;;;;0.00;0.00;;;15.70;99.90;;;;;;5030957;28;20205;-64
2022/10/06 03:46:59;;;;;;;0.00;0.00;;;15.70;99.90;;;;;;5031856;28;20190;-65
2022/10/06 03:49:25;;;;;;;0.05;0.05;;;15.60;99.90;;;;;;5032026;28;20589;-64
2022/10/06 03:51:52;;;;;;;0.00;0.00;;;15.70;99.90;;;;;;5031842;28;20186;-64
2022/10/06 03:54:17;;;;;;;0.08;0.05;;;15.70;99.90;;;;;;5031606;28;20189;-63
2022/10/06 03:56:43;;;;;;;0.00;0.00;;;15.60;99.90;;;;;;5031560;28;20194;-63
2022/10/06 03:59:11;;;;;;;0.00;0.00;;;15.70;99.90;;;;;;5031125;28;20221;-64
2022/10/06 04:01:38;;;;;;;0.00;0.00;;;15.70;99.90;;;;;;5030886;28;20555;-63
2022/10/06 04:04:05;;;;;;;0.00;0.00;;;15.70;99.90;;;;;;5030556;28;20214;-59
2022/10/06 04:06:33;;;;;;;0.20;0.20;;;15.70;99.90;;;;;;5035836;28;20181;-61
2022/10/06 04:08:59;;;;;;;0.00;0.00;;;15.70;99.90;;;;;;5033317;28;20174;-62
2022/10/06 04:11:31;;;;;;;0.00;0.00;;;15.70;99.90;;;;;;5032526;28;20177;-60
2022/10/06 04:14:07;;;;;;;0.00;0.00;;;15.70;99.90;;;;;;5031456;28;20201;-60
2022/10/06 04:16:35;;;;;;;0.10;0.10;;;15.70;99.90;;;;;;5031416;28;20186;-59
2022/10/06 04:19:05;;;;;;;0.00;0.00;;;15.70;99.90;;;;;;5031780;28;20630;-61
2022/10/06 04:21:36;;;;;;;0.00;0.00;;;15.70;99.90;;;;;;5031776;28;20633;-59
2022/10/06 04:24:02;;;;;;;0.00;0.00;;;15.70;99.90;;;;;;5031580;28;20186;-60
2022/10/06 04:26:30;;;;;;;0.03;0.03;;;15.70;99.90;;;;;;5033045;28;20180;-59
2022/10/06 04:28:57;;;;;;;0.00;0.00;;;15.70;99.90;;;;;;5035832;28;20181;-59
2022/10/06 04:31:25;;;;;;;0.00;0.00;;;15.70;99.90;;;;;;5035684;28;20189;-59
2022/10/06 04:33:53;;;;;;;0.00;0.00;;;15.70;99.90;;;;;;5035513;28;20277;-59
2022/10/06 04:36:22;;;;;;;0.00;0.00;;;15.70;99.90;;;;;;5035527;28;20530;-59
2022/10/06 04:38:57;;;;;;;0.00;0.00;;;15.70;99.90;;;;;;5035527;28;20178;-59
2022/10/06 04:41:25;;;;;;;0.10;0.10;;;15.70;99.90;;;;;;5034714;28;20595;-62
2022/10/06 04:43:52;;;;;;;0.00;0.00;;;15.70;99.90;;;;;;5034830;28;20276;-61
2022/10/06 04:46:19;;;;;;;0.00;0.00;;;15.70;99.90;;;;;;5035303;28;20241;-62
2022/10/06 04:48:44;;;;;;;0.00;0.00;;;15.70;99.90;;;;;;5035504;28;20183;-62
2022/10/06 04:51:13;;;;;;;0.00;0.00;;;15.70;99.90;;;;;;5034972;28;20524;-61
2022/10/06 04:53:38;;;;;;;0.08;0.08;;;15.70;99.90;;;;;;5035374;28;20175;-61
2022/10/06 04:56:05;;;;;;;0.25;0.25;;;15.70;99.90;;;;;;5035260;28;20175;-61
2022/10/06 04:58:32;;;;;;;0.00;0.00;;;15.70;99.90;;;;;;5035164;28;20177;-61
2022/10/06 05:00:59;;;;;;;0.10;0.00;;;15.70;99.90;;;;;;5035206;28;20201;-61
2022/10/06 05:03:26;;;;;;;0.00;0.00;;;15.70;99.90;;;;;;5035115;28;20257;-61
2022/10/06 05:05:51;;;;;;;0.00;0.00;;;15.70;99.90;;;;;;5034822;28;20261;-61
2022/10/06 05:08:17;;;;;;;0.00;0.00;;;15.70;99.90;;;;;;5034844;28;20661;-61
2022/10/06 05:10:42;;;;;;;0.38;0.38;;;15.70;99.90;;;;;;5033811;28;20182;-62
2022/10/06 05:13:10;;;;;;;0.00;0.00;;;15.70;99.90;;;;;;5034820;28;20194;-61
2022/10/06 05:15:36;;;;;;;0.00;0.00;;;15.70;99.90;;;;;;5035115;28;20178;-61
2022/10/06 05:18:02;;;;;;;0.00;0.00;;;15.70;99.90;;;;;;5034849;28;20178;-61
2022/10/06 05:20:27;;;;;;;0.00;0.00;;;15.60;99.90;;;;;;5034831;28;20701;-61
2022/10/06 05:22:53;;;;;;;0.10;0.10;;;15.60;99.90;;;;;;5034993;28;20193;-61
2022/10/06 05:25:18;;;;;;;0.00;0.00;;;15.70;99.90;;;;;;5034830;28;20606;-61
2022/10/06 05:27:44;;;;;;;0.00;0.00;;;15.60;99.90;;;;;;5034418;28;20245;-61
2022/10/06 05:30:10;;;;;;;0.00;0.00;;;15.60;99.90;;;;;;5034562;28;20182;-61
2022/10/06 05:32:35;;;;;;;0.00;0.00;;;15.60;99.90;;;;;;5034457;28;20186;-61
2022/10/06 05:35:01;;;;;;;0.00;0.00;;;15.60;99.90;;;;;;5034594;28;20190;-61
2022/10/06 05:37:26;;;;;;;0.08;0.08;;;15.60;99.90;;;;;;5033927;28;20178;-61
2022/10/06 05:39:52;;;;;;;0.40;0.40;;;15.70;99.90;;;;;;5034423;28;20267;-61
2022/10/06 05:42:17;;;;;;;0.00;0.00;;;15.70;99.90;;;;;;5034351;28;20185;-62
2022/10/06 05:44:43;;;;;;;0.00;0.00;;;15.70;99.90;;;;;;5034287;28;20554;-61
2022/10/06 05:47:08;;;;;;;0.00;0.00;;;15.70;99.90;;;;;;5034297;28;20669;-61
2022/10/06 05:49:34;;;;;;;0.20;0.03;;;15.60;99.90;;;;;;5034272;28;20178;-61
2022/10/06 05:51:59;;;;;;;0.00;0.00;;;15.60;99.90;;;;;;5034341;28;20178;-61
2022/10/06 05:54:25;;;;;;;0.00;0.00;;;15.50;99.90;;;;;;5034102;28;20248;-61
2022/10/06 05:56:51;;;;;;;0.00;0.00;;;15.50;99.90;;;;;;5034203;28;20259;-61
2022/10/06 05:59:16;;;;;;;0.20;0.20;;;15.60;99.90;;;;;;5033967;28;20178;-61
2022/10/06 06:01:43;;;;;;;0.00;0.00;;;15.50;99.90;;;;;;5033963;28;20641;-62
2022/10/06 06:04:11;;;;;;;0.00;0.00;;;15.50;99.90;;;;;;5033674;28;20228;-61
2022/10/06 06:06:45;;;;;;;0.00;0.00;;;15.60;99.90;;;;;;5038774;28;20758;-62
2022/10/06 06:09:13;;;;;;;0.00;0.00;;;15.60;99.90;;;;;;5053885;28;20173;-61
2022/10/06 06:11:40;;;;;;;0.03;0.03;;;15.60;99.90;;;;;;5053778;28;20191;-61
2022/10/06 06:14:09;;;;;;;0.00;0.00;;;15.70;99.90;;;;;;5053562;28;20643;-61
2022/10/06 06:16:37;;;;;;;0.00;0.00;;;15.70;99.90;;;;;;5053824;28;20185;-62
2022/10/06 06:19:05;;;;;;;0.00;0.00;;;15.70;99.90;;;;;;5053608;28;20205;-61
2022/10/06 06:21:31;;;;;;;0.00;0.00;;;15.60;99.90;;;;;;5053590;28;20633;-62
2022/10/06 06:23:57;;;;;;;0.17;0.17;;;15.60;99.90;;;;;;5053583;28;20579;-62
2022/10/06 06:26:28;;;;;;;0.20;0.20;;;15.50;99.90;;;;;;5053219;28;20221;-61
2022/10/06 06:28:55;;;;;;;0.45;0.45;;;15.50;99.90;;;;;;5053539;28;20188;-61
2022/10/06 06:31:25;;;;;;;0.10;0.10;;;15.60;99.90;;;;;;5053360;28;20185;-61
2022/10/06 06:33:53;;;;;;;0.00;0.00;;;15.60;99.90;;;;;;5039040;28;20182;-62
2022/10/06 06:36:34;;;;;;;1.52;0.20;;;15.60;99.90;;;;;;5033353;28;20178;-61
2022/10/06 06:39:02;;;;;;;0.08;0.00;;;15.60;99.90;;;;;;5033427;28;20239;-61
2022/10/06 06:41:31;;;;;;;0.00;0.00;;;15.60;99.90;;;;;;5033290;28;20179;-62
2022/10/06 06:43:58;;;;;;;0.03;0.03;;;15.70;99.90;;;;;;5033297;28;20317;-62
2022/10/06 06:46:25;;;;;;;0.10;0.10;;;15.70;99.90;;;;;;5032972;28;20583;-61
2022/10/06 06:48:52;;;;;;;0.00;0.00;;;15.80;99.90;;;;;;5032393;28;20205;-61
2022/10/06 06:51:22;;;;;;;0.08;0.08;;;15.90;99.90;;;;;;5033064;28;20239;-61
2022/10/06 06:53:49;;;;;;;0.20;0.20;;;15.90;99.90;;;;;;5033003;28;20665;-61
2022/10/06 06:56:15;;;;;;;0.35;0.22;;;16.00;99.90;;;;;;5032920;28;20178;-62
2022/10/06 06:58:47;;;;;;;0.00;0.00;;;16.10;99.90;;;;;;5033099;28;20684;-62
2022/10/06 07:01:16;;;;;;;0.00;0.00;;;16.10;99.90;;;;;;5033002;28;20189;-62
2022/10/06 07:03:49;;;;;;;0.60;0.20;;;16.10;99.90;;;;;;5032822;28;20178;-61
2022/10/06 07:06:15;;;;;;;0.05;0.05;;;16.20;99.90;;;;;;5034682;28;20230;-62
2022/10/06 07:08:43;;;;;;;0.00;0.00;;;16.10;99.90;;;;;;5052723;28;20192;-62
2022/10/06 07:11:14;;;;;;;0.00;0.00;;;16.10;99.90;;;;;;5052689;28;20182;-61
2022/10/06 07:13:41;;;;;;;0.00;0.00;;;16.10;99.90;;;;;;5052899;28;20260;-62
2022/10/06 07:27:10;;;;;;;0.00;0.00;;;16.80;99.90;;;;;;5052751;28;20181;-62
2022/10/06 07:29:36;;;;;;;0.00;0.00;;;16.80;99.90;;;;;;5052452;28;20173;-62
2022/10/06 07:32:01;;;;;;;0.00;0.00;;;16.90;99.90;;;;;;5052328;28;20181;-62
2022/10/06 07:34:29;;;;;;;0.00;0.00;;;16.90;99.90;;;;;;5032794;28;20247;-62
2022/10/06 07:36:57;;;;;;;0.00;0.00;;;16.90;99.90;;;;;;5032415;28;20681;-62
2022/10/06 07:39:23;;;;;;;0.00;0.00;;;16.90;99.90;;;;;;5032139;28;20182;-62
2022/10/06 07:41:48;;;;;;;0.00;0.00;;;16.90;99.90;;;;;;5032362;28;20186;-62
2022/10/06 07:44:14;;;;;;;0.00;0.00;;;16.90;99.90;;;;;;5032074;28;20186;-62
2022/10/06 07:46:39;;;;;;;0.00;0.00;;;17.00;99.90;;;;;;5032299;28;20175;-62
2022/10/06 07:49:05;;;;;;;0.00;0.00;;;17.00;99.90;;;;;;5032083;28;20178;-61
2022/10/06 07:51:30;;;;;;;0.00;0.00;;;17.20;99.90;;;;;;5032231;28;20257;-61
2022/10/06 07:53:56;;;;;;;0.00;0.00;;;17.30;99.90;;;;;;5032143;28;20185;-62
2022/10/06 07:56:21;;;;;;;0.00;0.00;;;17.40;99.90;;;;;;5032002;28;20201;-62
2022/10/06 07:58:48;;;;;;;0.00;0.00;;;17.50;99.90;;;;;;5032122;28;20656;-62
2022/10/06 08:01:15;;;;;;;0.00;0.00;;;17.80;99.90;;;;;;5031859;28;20261;-62
2022/10/06 08:03:43;;;;;;;0.00;0.00;;;18.00;99.90;;;;;;5031933;28;20182;-61
2022/10/06 08:06:14;;;;;;;0.00;0.00;;;18.20;99.90;;;;;;5032927;28;20697;-62
2022/10/06 08:08:41;;;;;;;0.00;0.00;;;18.40;99.90;;;;;;5051869;28;20665;-62
2022/10/06 08:11:07;;;;;;;0.00;0.00;;;18.60;99.90;;;;;;5051830;28;20192;-62
2022/10/06 08:13:39;;;;;;;0.00;0.00;;;18.80;99.90;;;;;;5051840;28;20180;-62
2022/10/06 08:16:07;;;;;;;0.00;0.00;;;18.90;99.90;;;;;;5051683;28;20544;-62
2022/10/06 08:18:33;;;;;;;0.00;0.00;;;18.80;99.90;;;;;;5051722;28;20173;-62
2022/10/06 08:20:58;;;;;;;0.00;0.00;;;18.90;99.90;;;;;;5051817;28;20173;-62
2022/10/06 08:23:24;;;;;;;0.00;0.00;;;19.00;99.90;;;;;;5051493;28;20513;-62
2022/10/06 08:25:53;;;;;;;0.00;0.00;;;19.20;99.90;;;;;;5051606;28;20706;-62
2022/10/06 08:28:19;;;;;;;0.00;0.00;;;19.40;99.90;;;;;;5051608;28;20177;-63
2022/10/06 08:30:45;;;;;;;0.00;0.00;;;19.50;99.90;;;;;;5051570;28;20181;-62
2022/10/06 08:33:11;;;;;;;0.00;0.00;;;19.50;99.90;;;;;;5042601;28;20202;-62
2022/10/06 08:35:38;;;;;;;0.00;0.00;;;19.50;99.90;;;;;;5031763;28;20261;-62
2022/10/06 08:38:04;;;;;;;0.00;0.00;;;19.50;99.90;;;;;;5031635;28;20257;-62
2022/10/06 08:40:31;;;;;;;0.00;0.00;;;19.40;99.90;;;;;;5031514;28;20186;-62
2022/10/06 08:42:59;;;;;;;0.00;0.00;;;19.30;99.90;;;;;;5031621;28;20541;-62
2022/10/06 08:45:34;;;;;;;0.00;0.00;;;19.20;99.90;;;;;;5031299;28;20218;-62
2022/10/06 08:48:04;;;;;;;0.00;0.00;;;19.00;99.90;;;;;;5031760;28;20177;-62
2022/10/06 08:50:49;;;;;;;0.00;0.00;;;19.00;99.90;;;;;;5031488;28;20178;-62
2022/10/06 08:53:39;;;;;;;0.08;0.08;;;19.10;99.90;;;;;;5030378;28;20197;-62
2022/10/06 08:56:16;;;;;;;0.00;0.00;;;19.20;99.90;;;;;;5031310;28;20634;-62
2022/10/06 08:59:02;;;;;;;0.00;0.00;;;19.40;99.90;;;;;;5031444;28;20279;-62
2022/10/06 09:01:40;;;;;;;0.00;0.00;;;19.50;99.90;;;;;;5031396;28;20174;-62
2022/10/06 09:04:06;;;;;;;0.00;0.00;;;19.40;99.90;;;;;;5031122;28;20712;-62
2022/10/06 09:06:50;;;;;;;0.00;0.00;;;19.50;99.90;;;;;;5035748;28;20178;-62
2022/10/06 09:09:41;;;;;;;0.00;0.00;;;19.40;99.90;;;;;;5051174;28;20656;-61
2022/10/06 09:12:13;;;;;;;0.00;0.00;;;19.60;99.90;;;;;;5052004;28;20220;-62
2022/10/06 09:14:46;;;;;;;0.00;0.00;;;19.70;99.90;;;;;;5055009;28;20231;-62
2022/10/06 09:17:17;;;;;;;0.00;0.00;;;19.70;99.90;;;;;;5054909;28;20216;-62
2022/10/06 09:20:05;;;;;;;0.00;0.00;;;19.70;99.90;;;;;;5054698;28;20540;-62
2022/10/06 09:22:31;;;;;;;0.00;0.00;;;19.60;99.70;;;;;;5054804;28;20165;-62
2022/10/06 09:25:13;;;;;;;0.00;0.00;;;19.40;99.90;;;;;;5054700;28;20686;-62
2022/10/06 09:27:42;;;;;;;0.00;0.00;;;19.40;99.90;;;;;;5054764;28;20182;-62
2022/10/06 09:30:11;;;;;;;0.00;0.00;;;19.60;99.90;;;;;;5054554;28;20181;-62
2022/10/06 09:32:39;;;;;;;0.00;0.00;;;19.70;99.40;;;;;;5050333;28;20204;-62
2022/10/06 09:35:22;;;;;;;0.00;0.00;;;19.80;99.70;;;;;;5034495;28;20202;-62
2022/10/06 09:38:02;;;;;;;0.00;0.00;;;19.90;99.40;;;;;;5034660;28;20182;-62
2022/10/06 09:40:47;;;;;;;0.00;0.00;;;20.20;99.50;;;;;;5034584;28;20818;-62
2022/10/06 09:43:25;;;;;;;0.00;0.00;;;20.40;99.00;;;;;;5034504;28;20705;-62
2022/10/06 09:46:16;;;;;;;0.03;0.03;;;20.40;99.20;;;;;;5034402;28;20213;-62
2022/10/06 09:48:42;;;;;;;0.10;0.10;;;20.70;98.80;;;;;;5034309;28;20680;-62
2022/10/06 09:51:17;;;;;;;0.00;0.00;;;20.90;98.80;;;;;;5034295;28;20192;-62
2022/10/06 09:54:01;;;;;;;0.00;0.00;;;21.00;97.90;;;;;;5034254;28;20220;-62
2022/10/06 09:56:27;;;;;;;0.00;0.00;;;21.00;97.40;;;;;;5034200;28;20626;-62
2022/10/06 09:58:58;;;;;;;0.00;0.00;;;21.30;97.50;;;;;;5034285;28;20217;-62
2022/10/06 10:01:28;;;;;;;0.05;0.05;;;21.20;97.60;;;;;;5032798;28;20201;-62
2022/10/06 10:04:01;;;;;;;0.00;0.00;;;21.40;97.70;;;;;;5033848;28;20665;-62
2022/10/06 10:06:29;;;;;;;0.20;0.20;;;21.30;97.60;;;;;;5037213;28;20571;-62
2022/10/06 10:09:19;;;;;;;0.00;0.00;;;21.30;97.20;;;;;;5053856;28;20177;-62
2022/10/06 10:14:37;;;;;;;0.00;0.00;;;21.70;96.80;;;;;;5054094;28;20239;-62
2022/10/06 10:17:31;;;;;;;0.00;0.00;;;22.00;96.30;;;;;;5053539;28;20185;-62
2022/10/06 10:19:58;;;;;;;0.00;0.00;;;22.10;95.60;;;;;;5053736;28;20177;-62
2022/10/06 10:22:32;;;;;;;0.00;0.00;;;22.20;95.90;;;;;;5053536;28;20181;-62
2022/10/06 10:25:21;;;;;;;0.00;0.00;;;22.30;95.10;;;;;;5052342;28;20212;-62
2022/10/06 10:28:16;;;;;;;0.00;0.00;;;22.60;94.80;;;;;;5053630;28;20182;-62
2022/10/06 10:31:16;;;;;;;0.00;0.00;;;22.70;93.00;;;;;;5053519;28;20231;-62
2022/10/06 10:34:07;;;;;;;0.00;0.00;;;22.30;92.80;;;;;;5040266;28;20178;-62
2022/10/06 10:36:38;;;;;;;0.00;0.00;;;21.80;93.00;;;;;;5033544;28;20175;-62
2022/10/06 10:39:10;;;;;;;0.00;0.00;;;21.50;93.60;;;;;;5032130;28;20548;-61
2022/10/06 10:41:44;;;;;;;0.00;0.00;;;21.30;93.50;;;;;;5033543;28;20185;-62
2022/10/06 10:44:22;;;;;;;0.00;0.00;;;21.20;93.90;;;;;;5033189;28;20272;-62
2022/10/06 10:46:51;;;;;;;0.00;0.00;;;21.10;93.60;;;;;;5033417;28;20186;-62
2022/10/06 10:49:30;;;;;;;0.00;0.00;;;21.00;93.50;;;;;;5033176;28;20174;-62
2022/10/06 10:52:16;;;;;;;0.00;0.00;;;20.70;93.50;;;;;;5033167;28;20235;-62
2022/10/06 10:55:14;;;;;;;0.00;0.00;;;20.60;94.50;;;;;;5033132;28;20280;-62
2022/10/06 10:57:42;;;;;;;0.00;0.00;;;20.60;94.50;;;;;;5032143;28;20591;-62
2022/10/06 11:00:16;;;;;;;0.00;0.00;;;20.80;94.70;;;;;;5033055;28;20188;-62
2022/10/06 11:02:42;;;;;;;0.00;0.00;;;21.30;94.10;;;;;;5032944;28;20185;-62
2022/10/06 11:05:32;;;;;;;0.00;0.00;;;21.50;94.00;;;;;;5032622;28;20306;-62
2022/10/06 11:08:27;;;;;;;0.00;0.00;;;21.80;93.30;;;;;;5048825;28;20538;-62
2022/10/06 11:10:57;;;;;;;0.00;0.00;;;21.80;92.90;;;;;;5052784;28;20193;-62
2022/10/06 11:13:41;;;;;;;0.00;0.00;;;21.70;93.00;;;;;;5052569;28;20170;-62
2022/10/06 11:16:18;;;;;;;0.00;0.00;;;21.60;93.00;;;;;;5052619;28;20177;-62
2022/10/06 11:19:23;;;;;;;0.00;0.00;;;21.60;93.00;;;;;;5052555;28;20231;-62
2022/10/06 11:22:01;;;;;;;0.00;0.00;;;21.50;92.40;;;;;;5052548;28;20587;-62
2022/10/06 11:24:45;;;;;;;0.00;0.00;;;21.50;92.60;;;;;;5052475;28;20177;-62
2022/10/06 11:27:24;;;;;;;0.00;0.00;;;21.60;91.70;;;;;;5052337;28;20648;-62
2022/10/06 11:30:04;;;;;;;0.00;0.00;;;21.60;91.70;;;;;;5052517;28;20179;-62
2022/10/06 11:32:44;;;;;;;0.00;0.00;;;21.50;91.90;;;;;;5049111;28;20190;-62
2022/10/06 11:35:20;;;;;;;0.00;0.00;;;21.50;92.10;;;;;;5030802;28;20231;-62
2022/10/06 11:37:59;;;;;;;0.00;0.00;;;21.40;91.70;;;;;;5032394;28;20275;-62
2022/10/06 11:40:50;;;;;;;0.32;0.32;;;21.20;91.50;;;;;;5032223;28;20188;-62
2022/10/06 11:43:44;;;;;;;0.00;0.00;;;21.10;91.80;;;;;;5032219;28;20174;-62
2022/10/06 11:46:12;;;;;;;0.00;0.00;;;21.00;92.00;;;;;;5032115;28;20217;-62
2022/10/06 11:48:39;;;;;;;0.00;0.00;;;20.90;91.60;;;;;;5032284;28;20182;-62
2022/10/06 11:51:23;;;;;;;0.00;0.00;;;21.00;91.70;;;;;;5032102;28;20695;-62
2022/10/06 11:53:49;;;;;;;0.00;0.00;;;21.00;91.40;;;;;;5032158;28;20208;-62
2022/10/06 11:56:17;;;;;;;0.00;0.00;;;21.00;91.60;;;;;;5031985;28;20173;-62
2022/10/06 11:58:55;;;;;;;0.03;0.03;;;21.00;91.30;;;;;;5031944;28;20276;-62
2022/10/06 12:01:29;;;;;;;0.00;0.00;;;21.00;90.90;;;;;;5031994;28;20181;-62
2022/10/06 12:04:16;;;;;;;0.00;0.00;;;20.90;91.40;;;;;;5031860;28;20217;-62
2022/10/06 12:06:41;;;;;;;0.00;0.00;;;20.90;91.70;;;;;;5037397;28;20185;-62
2022/10/06 12:09:29;;;;;;;0.00;0.00;;;20.90;91.70;;;;;;5051810;28;20235;-62
2022/10/06 12:12:00;;;;;;;0.00;0.00;;;21.10;91.70;;;;;;5051762;28;20184;-62
2022/10/06 12:15:04;;;;;;;0.00;0.00;;;21.20;91.50;;;;;;5051677;28;20177;-61
2022/10/06 12:17:39;;;;;;;0.00;0.00;;;21.30;90.80;;;;;;5051734;28;20599;-62
2022/10/06 12:20:26;;;;;;;0.00;0.00;;;21.20;90.00;;;;;;5051645;28;20212;-62
2022/10/06 12:23:01;;;;;;;0.00;0.00;;;21.10;90.20;;;;;;5051790;28;20224;-62
2022/10/06 12:25:40;;;;;;;0.10;0.10;;;21.10;90.80;;;;;;5051642;28;20220;-62
2022/10/06 12:28:27;;;;;;;0.00;0.00;;;21.00;89.90;;;;;;5051514;28;20196;-62
2022/10/06 12:31:10;;;;;;;0.00;0.00;;;21.00;89.90;;;;;;5051731;28;20208;-62
2022/10/06 12:33:38;;;;;;;0.00;0.00;;;20.90;90.30;;;;;;5039363;28;20195;-62
2022/10/06 12:36:17;;;;;;;0.13;0.13;;;20.60;90.40;;;;;;5031576;28;20175;-61
2022/10/06 12:38:59;;;;;;;0.00;0.00;;;20.50;91.00;;;;;;5031566;28;20653;-62
2022/10/06 12:41:52;;;;;;;0.00;0.00;;;20.50;90.80;;;;;;5031492;28;20178;-62
2022/10/06 12:44:24;;;;;;;0.00;0.00;;;20.70;90.80;;;;;;5031539;28;20210;-62
2022/10/06 12:46:50;;;;;;;0.00;0.00;;;21.00;91.00;;;;;;5032101;28;20684;-62
2022/10/06 12:49:33;;;;;;;0.00;0.00;;;21.00;90.60;;;;;;5035436;28;20266;-62
2022/10/06 12:52:17;;;;;;;0.00;0.00;;;20.90;89.60;;;;;;5035513;28;20178;-62
2022/10/06 12:54:58;;;;;;;0.00;0.00;;;20.70;88.90;;;;;;5035385;28;20202;-62
2022/10/06 12:57:29;;;;;;;0.00;0.00;;;20.50;90.10;;;;;;5035137;28;20205;-62
2022/10/06 12:59:55;;;;;;;0.00;0.00;;;20.40;87.60;;;;;;5035348;28;20668;-62
2022/10/06 13:02:24;;;;;;;0.00;0.00;;;20.30;90.00;;;;;;5035191;28;20189;-62
2022/10/06 13:05:10;;;;;;;0.00;0.00;;;20.20;90.50;;;;;;5034943;28;20329;-62
2022/10/06 13:08:17;;;;;;;0.00;0.00;;;20.10;90.50;;;;;;5048192;28;20182;-62
2022/10/06 13:10:42;;;;;;;0.00;0.00;;;20.00;91.10;;;;;;5051688;28;20200;-62
2022/10/06 13:13:23;;;;;;;0.00;0.00;;;20.00;90.90;;;;;;5054989;28;20173;-62
2022/10/06 13:15:50;;;;;;;0.00;0.00;;;20.00;90.60;;;;;;5054954;28;20185;-62
2022/10/06 13:18:20;;;;;;;0.00;0.00;;;20.10;91.20;;;;;;5054701;28;20178;-62
2022/10/06 13:20:53;;;;;;;0.00;0.00;;;20.00;90.70;;;;;;5054752;28;20253;-62